Jefferson, NC

1:19 PM EST on November 12, 2019 (GMT -0500)
Ashe County

Weather History for KGEV - May, 2019

Change the Weather History Date:

Monday, May 13, 2019

  Actual Average Record
Temperature  
Mean Temperature 52 °F -  
Max Temperature 59 °F 71 °F 83 °F (1982)
Min Temperature 45 °F 47 °F 27 °F (1989)
Degree Days  
Heating Degree Days 13    
Growing Degree Days 2 (Base 50)    
Moisture  
Dew Point 44 °F    
Average Humidity 70    
Maximum Humidity 95    
Minimum Humidity 45    
Precipitation  
Precipitation 0.00 in - - ()
Sea Level Pressure  
Sea Level Pressure 29.84 in    
Wind  
Wind Speed 10 mph (WNW)    
Max Wind Speed 25 mph    
Max Gust Speed 36 mph    
Visibility 10 miles    
Events Rain    
Averages and records for this station are not official NWS values.
T = Trace of Precipitation, MM = Missing Value Source: NWS Daily Summary

Daily Weather History Graph

Daily Weather History Graph

Search for Another Location

Airport or City:

Astronomy

May. 13, 2019 Rise Set
Actual Time 6:20 AM EDT 8:23 PM EDT
Civil Twilight 5:52 AM EDT 8:52 PM EDT
Nautical Twilight 5:17 AM EDT 9:27 PM EDT
Astronomical Twilight 4:40 AM EDT 10:04 PM EDT
Moon 2:46 PM EDT (5/13) 3:24 AM EDT (5/13)
Length of Visible Light 15h 00m
Length of Day
14h 02m
Waxing Gibbous, 68% of the Moon is Illuminated
May 13
Waxing Gibbous
May 18
Full
May 26
Last Quarter
Jun 3
New
Jun 10
First Quarter

Hourly Weather History & Observations

Time (EDT) Temp. Windchill Dew Point Humidity Pressure Visibility Wind Dir Wind Speed Gust Speed Precip Events Conditions
12:05 AM 57.9 °F - 56.1 °F 94% 29.80 in 10.0 mi Calm Calm - N/A   Overcast
12:25 AM 57.7 °F - 56.3 °F 95% 29.81 in 7.0 mi WNW 4.6 mph - 0.01 in Rain Light Rain
12:45 AM 57.6 °F - 54.9 °F 91% 29.80 in 7.0 mi West 6.9 mph - 0.01 in   Drizzle
1:05 AM 57.4 °F - 53.6 °F 87% 29.80 in 10.0 mi WNW 11.5 mph 18.4 mph N/A   Mostly Cloudy
1:25 AM 57.2 °F - 52.7 °F 85% 29.80 in 10.0 mi West 9.2 mph - N/A   Scattered Clouds
1:45 AM 57.0 °F - 52.0 °F 83% 29.79 in 10.0 mi West 6.9 mph - N/A   Mostly Cloudy
2:05 AM 57.2 °F - 52.0 °F 83% 29.78 in 10.0 mi West 13.8 mph 19.6 mph N/A   Mostly Cloudy
2:25 AM 56.7 °F - 51.6 °F 83% 29.78 in 10.0 mi West 10.4 mph 19.6 mph N/A   Scattered Clouds
2:45 AM 56.7 °F - 51.4 °F 83% 29.78 in 10.0 mi WSW 8.1 mph 17.3 mph N/A   Mostly Cloudy
3:05 AM 56.3 °F - 51.3 °F 83% 29.78 in 10.0 mi West 9.2 mph - N/A   Mostly Cloudy
3:25 AM 56.3 °F - 51.6 °F 84% 29.77 in 7.0 mi West 17.3 mph 23.0 mph N/A   Mostly Cloudy
3:45 AM 55.6 °F - 52.0 °F 88% 29.79 in 7.0 mi West 5.8 mph - N/A   Light Drizzle
4:05 AM 55.6 °F - 51.4 °F 86% 29.78 in 10.0 mi West 6.9 mph - N/A   Overcast
4:25 AM 55.8 °F - 50.7 °F 83% 29.78 in 10.0 mi West 8.1 mph - N/A   Overcast
4:45 AM 55.8 °F - 50.4 °F 82% 29.77 in 10.0 mi West 5.8 mph - N/A   Overcast
5:05 AM 55.8 °F - 50.2 °F 82% 29.76 in 10.0 mi WNW 6.9 mph - N/A   Overcast
5:25 AM 55.4 °F - 50.4 °F 83% 29.77 in 10.0 mi WNW 6.9 mph - N/A   Overcast
5:45 AM 54.9 °F - 51.1 °F 87% 29.78 in 7.0 mi West 5.8 mph - N/A Rain Rain
6:05 AM 54.0 °F - 50.7 °F 89% 29.79 in 10.0 mi WNW 4.6 mph - N/A   Light Drizzle
6:25 AM 53.6 °F - 50.0 °F 88% 29.79 in 10.0 mi WNW 4.6 mph - N/A Rain Light Rain
6:45 AM 52.7 °F - 49.8 °F 90% 29.80 in 7.0 mi West 11.5 mph 18.4 mph N/A   Drizzle
7:05 AM 53.2 °F - 48.7 °F 85% 29.80 in 10.0 mi West 13.8 mph 18.4 mph N/A   Overcast
7:25 AM 53.4 °F - 48.6 °F 84% 29.81 in 10.0 mi West 12.7 mph 17.3 mph N/A   Overcast
7:45 AM 53.1 °F - 49.1 °F 86% 29.81 in 10.0 mi West 6.9 mph - N/A   Overcast
8:05 AM 53.8 °F - 48.2 °F 81% 29.81 in 10.0 mi West 12.7 mph - N/A   Overcast
8:25 AM 53.8 °F - 47.7 °F 80% 29.82 in 10.0 mi West 11.5 mph 17.3 mph N/A   Overcast
8:45 AM 54.3 °F - 46.8 °F 76% 29.81 in 10.0 mi West 11.5 mph 19.6 mph N/A   Mostly Cloudy
9:05 AM 54.3 °F - 45.0 °F 71% 29.82 in 10.0 mi West 18.4 mph 27.6 mph N/A   Scattered Clouds
9:25 AM 52.5 °F - 42.8 °F 70% 29.83 in 10.0 mi West 25.3 mph 31.1 mph N/A   Mostly Cloudy
9:45 AM 53.2 °F - 42.6 °F 67% 29.83 in 10.0 mi West 19.6 mph 31.1 mph N/A   Scattered Clouds
10:05 AM 53.1 °F - 42.3 °F 67% 29.83 in 10.0 mi WNW 18.4 mph 32.2 mph N/A   Scattered Clouds
10:25 AM 53.6 °F - 41.7 °F 64% 29.83 in 10.0 mi WNW 20.7 mph 35.7 mph N/A   Clear
10:45 AM 52.9 °F - 41.9 °F 66% 29.85 in 10.0 mi WNW 21.9 mph 32.2 mph N/A   Mostly Cloudy
11:05 AM 53.6 °F - 42.3 °F 65% 29.85 in 10.0 mi West 16.1 mph 31.1 mph N/A   Scattered Clouds
11:25 AM 54.3 °F - 41.7 °F 62% 29.84 in 10.0 mi WNW 20.7 mph 26.5 mph N/A   Scattered Clouds
11:45 AM 55.9 °F - 41.4 °F 58% 29.85 in 10.0 mi West 19.6 mph 28.8 mph N/A   Scattered Clouds
12:05 PM 56.1 °F - 41.7 °F 58% 29.84 in 10.0 mi West 13.8 mph 19.6 mph N/A   Mostly Cloudy
12:25 PM 56.7 °F - 41.0 °F 56% 29.84 in 10.0 mi WNW 18.4 mph 24.2 mph N/A   Mostly Cloudy
12:45 PM 56.1 °F - 39.6 °F 54% 29.84 in 10.0 mi WNW 12.7 mph 20.7 mph N/A   Overcast
1:05 PM 55.8 °F - 40.3 °F 56% 29.84 in 10.0 mi West 12.7 mph 20.7 mph N/A   Overcast
1:25 PM 57.2 °F - 39.4 °F 51% 29.83 in 10.0 mi WNW 12.7 mph 21.9 mph N/A   Mostly Cloudy
2:05 PM 56.8 °F - 40.1 °F 54% 29.84 in 10.0 mi WNW 15.0 mph 21.9 mph N/A   Mostly Cloudy
2:25 PM 58.3 °F - 39.0 °F 49% 29.83 in 10.0 mi West 17.3 mph 26.5 mph N/A   Overcast
2:45 PM 58.5 °F - 39.2 °F 49% 29.84 in 10.0 mi WNW 15.0 mph 26.5 mph N/A   Mostly Cloudy
3:05 PM 59.0 °F - 39.6 °F 49% 29.84 in 10.0 mi West 20.7 mph 27.6 mph N/A   Scattered Clouds
3:25 PM 58.3 °F - 37.0 °F 45% 29.84 in 10.0 mi West 17.3 mph 25.3 mph N/A   Mostly Cloudy
4:05 PM 57.9 °F - 37.6 °F 47% 29.84 in 10.0 mi West 18.4 mph 29.9 mph N/A   Mostly Cloudy
4:25 PM 58.3 °F - 38.1 °F 47% 29.85 in 10.0 mi WNW 17.3 mph 25.3 mph N/A   Scattered Clouds
4:45 PM 57.0 °F - 38.5 °F 50% 29.85 in 10.0 mi West 16.1 mph 24.2 mph N/A   Scattered Clouds
5:05 PM 56.8 °F - 37.9 °F 49% 29.85 in 10.0 mi West 10.4 mph 19.6 mph N/A   Scattered Clouds
5:45 PM 55.2 °F - 37.8 °F 52% 29.86 in 10.0 mi West 16.1 mph 21.9 mph N/A   Overcast
6:05 PM 54.5 °F - 38.5 °F 55% 29.87 in 10.0 mi West 12.7 mph 25.3 mph N/A   Overcast
6:25 PM 53.4 °F - 38.5 °F 57% 29.88 in 10.0 mi West 8.1 mph 17.3 mph N/A   Overcast
6:45 PM 52.9 °F - 39.6 °F 61% 29.88 in 10.0 mi WNW 13.8 mph 20.7 mph N/A   Overcast
7:05 PM 52.0 °F - 40.5 °F 65% 29.89 in 10.0 mi NNW 11.5 mph 17.3 mph N/A   Overcast
7:25 PM 50.9 °F - 39.4 °F 65% 29.89 in 10.0 mi WNW 16.1 mph 19.6 mph N/A   Overcast
7:45 PM 50.5 °F - 39.2 °F 65% 29.90 in 10.0 mi NW 10.4 mph 18.4 mph N/A   Overcast
8:05 PM 50.0 °F - 39.0 °F 66% 29.91 in 10.0 mi NW 9.2 mph 21.9 mph N/A   Overcast
8:25 PM 49.3 °F - 38.1 °F 65% 29.92 in 10.0 mi NW 6.9 mph - N/A   Overcast
8:45 PM 48.6 °F - 37.8 °F 66% 29.92 in 10.0 mi NW 10.4 mph - N/A   Overcast
9:05 PM 48.0 °F - 37.4 °F 67% 29.93 in 10.0 mi NW 8.1 mph - N/A   Overcast
9:25 PM 47.3 °F - 37.6 °F 69% 29.93 in 10.0 mi NW 13.8 mph 18.4 mph N/A   Scattered Clouds
9:45 PM 46.8 °F - 37.6 °F 70% 29.93 in 10.0 mi NW 8.1 mph - N/A   Clear
10:05 PM 46.4 °F 41.9 °F 37.4 °F 71% 29.94 in 10.0 mi NW 9.2 mph 17.3 mph N/A   Clear
10:25 PM 46.0 °F 41.0 °F 37.4 °F 72% 29.95 in 10.0 mi NW 10.4 mph - N/A   Scattered Clouds
10:45 PM 46.2 °F 45.0 °F 37.4 °F 71% 29.95 in 10.0 mi NW 3.5 mph - N/A   Mostly Cloudy
11:05 PM 45.9 °F 41.7 °F 37.8 °F 73% 29.96 in 10.0 mi NNW 8.1 mph 17.3 mph N/A   Overcast
11:25 PM 46.0 °F 41.4 °F 37.8 °F 73% 29.95 in 10.0 mi NW 9.2 mph 17.3 mph N/A   Overcast
11:45 PM 45.9 °F 40.4 °F 38.3 °F 75% 29.95 in 10.0 mi NNW 11.5 mph 18.4 mph N/A   Overcast